Lorraine — A8IZ3 — position and weather

sailwx.info

Track history (hours):
 
Tides and Currents Weather Stations Pressure Air Temp Water Temp Dewpoint Dewpoint Depression Visibility Wind Speed Wind Dir Waves Ship Positions

Lorraine

Last reported at 2016-Jul-26 09:17 UTC. Time now 2016-Jul-27 23:05 UTC.
Position N 36°37' E 122°26'.

Length 221 m; draft 8.8 m.

Type: Ship. MMSI: 636012905.

Date/timePositionNaut miles runAvg speedWind from/ knotsBaromVisibWave heightAir tempDewpointWater temp
2016-Jul-26 09:17N 36°37' E 122°26'911.7
2016-Jul-26 08:31N 36°44' E 122°33'1111.9
2016-Jul-26 07:33N 36°53' E 122°41'1211.5
2016-Jul-26 06:32N 37°02' E 122°50'1110.6
2016-Jul-26 05:32N 37°12' E 122°57'8710.3
2016-Jul-25 21:05N 38°31' E 122°12'811.8
2016-Jul-25 20:27N 38°37' E 122°07'1011.6
2016-Jul-25 19:33N 38°46' E 122°00'12 0.8
2016-Jul-25 05:23N 38°58' E 121°57'4 0.5
2016-Jul-24 21:16N 38°53' E 121°58'5 6.8
2016-Jul-24 20:33N 38°50' E 121°54'1010.5
2016-Jul-24 19:33N 38°40' E 121°50'1211.5
2016-Jul-24 18:31N 38°30' E 121°41'2412.3
2016-Jul-24 16:32N 38°29' E 121°10'1313.3
2016-Jul-24 15:33N 38°32' E 120°54'1813.7
2016-Jul-24 14:15N 38°35' E 120°31'1013.7
2016-Jul-24 13:33N 38°37' E 120°19'10613.1
2016-Jul-24 05:25N 38°55' E 118°05'1012.1
2016-Jul-24 04:33N 38°58' E 117°52'4 3.3
2016-Jul-24 03:24N 38°59' E 117°47'0 0.0
2016-Jul-24 02:18N 38°59' E 117°47'0 0.0
2016-Jul-24 01:29N 38°59' E 117°47'0 0.0
2016-Jul-24 00:29N 38°59' E 117°47'0 0.0
2016-Jul-23 23:29N 38°59' E 117°47'0 0.0
2016-Jul-23 22:28N 38°59' E 117°47'0 0.0
2016-Jul-23 21:10N 38°59' E 117°47'0 0.0
2016-Jul-23 20:33N 38°59' E 117°47'0 0.0
2016-Jul-23 19:33N 38°59' E 117°47'0 0.0
2016-Jul-23 18:32N 38°59' E 117°47'0 0.0
2016-Jul-23 17:26N 38°59' E 117°47'0 0.0
2016-Jul-23 16:32N 38°59' E 117°47'0 0.0
2016-Jul-23 15:25N 38°59' E 117°47'0 0.0
2016-Jul-23 14:31N 38°59' E 117°47'0 0.0
2016-Jul-23 13:30N 38°59' E 117°47'0 0.0
2016-Jul-23 12:32N 38°59' E 117°47'8 7.9
2016-Jul-23 11:29N 38°57' E 117°58'1010.6
2016-Jul-23 10:34N 38°56' E 118°10'102 6.3
2016-Jul-22 18:25N 38°40' E 120°20'1011.7
2016-Jul-22 17:33N 38°39' E 120°33'1211.5
2016-Jul-22 16:33N 38°37' E 120°47'1111.2
2016-Jul-22 15:32N 38°33' E 121°01'1111.3
2016-Jul-22 14:33N 38°28' E 121°14'6512.9
2016-Jul-22 09:30N 37°55' E 122°25'5012.8
2016-Jul-22 05:33N 37°15' E 123°03'1413.7
2016-Jul-22 04:32N 37°00' E 123°05'26914.7
2016-Jul-21 10:10N 32°31' E 123°20'913.8
2016-Jul-21 09:30N 32°22' E 123°20'53014.0
2016-Jul-19 19:31N 24°20' E 119°11'3213.5
2016-Jul-19 17:07N 23°59' E 118°44'2314.5
2016-Jul-19 15:31N 23°44' E 118°25'25314.0
2016-Jul-18 21:22N 22°18' E 114°06'3 2.8
2016-Jul-18 20:21N 22°21' E 114°07'0 0.0
2016-Jul-18 19:33N 22°21' E 114°07'0 0.0
2016-Jul-18 18:20N 22°21' E 114°07'0 0.0
2016-Jul-18 17:32N 22°21' E 114°07'0 0.0
2016-Jul-18 16:31N 22°21' E 114°07'0 0.0
2016-Jul-18 15:31N 22°21' E 114°07'0 0.0
2016-Jul-18 14:30N 22°21' E 114°07'0 0.0
2016-Jul-18 13:24N 22°21' E 114°07'0 0.0
2016-Jul-18 11:11N 22°21' E 114°07'0 0.0
2016-Jul-18 08:04N 22°21' E 114°07'2 3.0
2016-Jul-18 07:33N 22°19' E 114°06'  
Track history (hours):
 
Tides and Currents Weather Stations Pressure Air Temp Water Temp Dewpoint Dewpoint Depression Visibility Wind Speed Wind Dir Waves Ship Positions

Lorraine

Last reported at 2016-Jul-26 09:17 UTC. Time now 2016-Jul-27 23:05 UTC.
Position N 36°37' E 122°26'.

Length 221 m; draft 8.8 m.

Type: Ship. MMSI: 636012905.

Date/timePositionNaut miles runAvg speedWind from/ knotsBaromVisibWave heightAir tempDewpointWater temp
2016-Jul-26 09:17N 36°37' E 122°26'911.7
2016-Jul-26 08:31N 36°44' E 122°33'1111.9
2016-Jul-26 07:33N 36°53' E 122°41'1211.5
2016-Jul-26 06:32N 37°02' E 122°50'1110.6
2016-Jul-26 05:32N 37°12' E 122°57'8710.3
2016-Jul-25 21:05N 38°31' E 122°12'811.8
2016-Jul-25 20:27N 38°37' E 122°07'1011.6
2016-Jul-25 19:33N 38°46' E 122°00'12 0.8
2016-Jul-25 05:23N 38°58' E 121°57'4 0.5
2016-Jul-24 21:16N 38°53' E 121°58'5 6.8
2016-Jul-24 20:33N 38°50' E 121°54'1010.5
2016-Jul-24 19:33N 38°40' E 121°50'1211.5
2016-Jul-24 18:31N 38°30' E 121°41'2412.3
2016-Jul-24 16:32N 38°29' E 121°10'1313.3
2016-Jul-24 15:33N 38°32' E 120°54'1813.7
2016-Jul-24 14:15N 38°35' E 120°31'1013.7
2016-Jul-24 13:33N 38°37' E 120°19'10613.1
2016-Jul-24 05:25N 38°55' E 118°05'1012.1
2016-Jul-24 04:33N 38°58' E 117°52'4 3.3
2016-Jul-24 03:24N 38°59' E 117°47'0 0.0
2016-Jul-24 02:18N 38°59' E 117°47'0 0.0
2016-Jul-24 01:29N 38°59' E 117°47'0 0.0
2016-Jul-24 00:29N 38°59' E 117°47'0 0.0
2016-Jul-23 23:29N 38°59' E 117°47'0 0.0
2016-Jul-23 22:28N 38°59' E 117°47'0 0.0
2016-Jul-23 21:10N 38°59' E 117°47'0 0.0
2016-Jul-23 20:33N 38°59' E 117°47'0 0.0
2016-Jul-23 19:33N 38°59' E 117°47'0 0.0
2016-Jul-23 18:32N 38°59' E 117°47'0 0.0
2016-Jul-23 17:26N 38°59' E 117°47'0 0.0
2016-Jul-23 16:32N 38°59' E 117°47'0 0.0
2016-Jul-23 15:25N 38°59' E 117°47'0 0.0
2016-Jul-23 14:31N 38°59' E 117°47'0 0.0
2016-Jul-23 13:30N 38°59' E 117°47'0 0.0
2016-Jul-23 12:32N 38°59' E 117°47'8 7.9
2016-Jul-23 11:29N 38°57' E 117°58'1010.6
2016-Jul-23 10:34N 38°56' E 118°10'102 6.3
2016-Jul-22 18:25N 38°40' E 120°20'1011.7
2016-Jul-22 17:33N 38°39' E 120°33'1211.5
2016-Jul-22 16:33N 38°37' E 120°47'1111.2
2016-Jul-22 15:32N 38°33' E 121°01'1111.3
2016-Jul-22 14:33N 38°28' E 121°14'6512.9
2016-Jul-22 09:30N 37°55' E 122°25'5012.8
2016-Jul-22 05:33N 37°15' E 123°03'1413.7
2016-Jul-22 04:32N 37°00' E 123°05'26914.7
2016-Jul-21 10:10N 32°31' E 123°20'913.8
2016-Jul-21 09:30N 32°22' E 123°20'53014.0
2016-Jul-19 19:31N 24°20' E 119°11'3213.5
2016-Jul-19 17:07N 23°59' E 118°44'2314.5
2016-Jul-19 15:31N 23°44' E 118°25'25314.0
2016-Jul-18 21:22N 22°18' E 114°06'3 2.8
2016-Jul-18 20:21N 22°21' E 114°07'0 0.0
2016-Jul-18 19:33N 22°21' E 114°07'0 0.0
2016-Jul-18 18:20N 22°21' E 114°07'0 0.0
2016-Jul-18 17:32N 22°21' E 114°07'0 0.0
2016-Jul-18 16:31N 22°21' E 114°07'0 0.0
2016-Jul-18 15:31N 22°21' E 114°07'0 0.0
2016-Jul-18 14:30N 22°21' E 114°07'0 0.0
2016-Jul-18 13:24N 22°21' E 114°07'0 0.0
2016-Jul-18 11:11N 22°21' E 114°07'0 0.0
2016-Jul-18 08:04N 22°21' E 114°07'2 3.0
2016-Jul-18 07:33N 22°19' E 114°06'  

Dump ship's entire track history